sensor_id;sensor_type;location;lat;lon;timestamp;pressure;altitude;pressure_sealevel;temperature;humidity
54900;BME280;40801;41.924;25.562;2023-03-21T00:00:29;99505.38;;;8.76;65.97
54900;BME280;40801;41.924;25.562;2023-03-21T00:02:55;99501.81;;;8.80;65.33
54900;BME280;40801;41.924;25.562;2023-03-21T00:05:21;99509.94;;;8.94;64.94
54900;BME280;40801;41.924;25.562;2023-03-21T00:07:46;99516.72;;;8.91;65.12
54900;BME280;40801;41.924;25.562;2023-03-21T00:10:12;99514.25;;;8.95;65.18
54900;BME280;40801;41.924;25.562;2023-03-21T00:12:38;99517.00;;;8.90;65.73
54900;BME280;40801;41.924;25.562;2023-03-21T00:15:08;99513.31;;;8.86;65.71
54900;BME280;40801;41.924;25.562;2023-03-21T00:17:34;99509.81;;;8.85;64.96
54900;BME280;40801;41.924;25.562;2023-03-21T00:20:01;99513.59;;;8.84;65.25
54900;BME280;40801;41.924;25.562;2023-03-21T00:22:30;99509.59;;;8.82;65.70
54900;BME280;40801;41.924;25.562;2023-03-21T00:24:56;99504.81;;;8.79;65.37
54900;BME280;40801;41.924;25.562;2023-03-21T00:27:21;99506.25;;;8.71;65.98
54900;BME280;40801;41.924;25.562;2023-03-21T00:29:47;99511.91;;;8.69;66.33
54900;BME280;40801;41.924;25.562;2023-03-21T00:32:14;99511.97;;;8.64;65.93
54900;BME280;40801;41.924;25.562;2023-03-21T00:34:43;99505.50;;;8.65;66.13
54900;BME280;40801;41.924;25.562;2023-03-21T00:37:09;99502.06;;;8.60;66.35
54900;BME280;40801;41.924;25.562;2023-03-21T00:39:36;99504.69;;;8.65;66.74
54900;BME280;40801;41.924;25.562;2023-03-21T00:42:02;99495.72;;;8.75;66.04
54900;BME280;40801;41.924;25.562;2023-03-21T00:44:28;99499.13;;;8.80;66.14
54900;BME280;40801;41.924;25.562;2023-03-21T00:46:53;99493.75;;;8.80;66.23
54900;BME280;40801;41.924;25.562;2023-03-21T00:49:18;99488.66;;;8.79;66.31
54900;BME280;40801;41.924;25.562;2023-03-21T00:51:47;99486.06;;;8.74;66.33
54900;BME280;40801;41.924;25.562;2023-03-21T00:54:15;99481.09;;;8.81;65.73
54900;BME280;40801;41.924;25.562;2023-03-21T00:56:41;99473.84;;;8.81;66.14
54900;BME280;40801;41.924;25.562;2023-03-21T00:59:06;99477.63;;;8.80;66.59
54900;BME280;40801;41.924;25.562;2023-03-21T01:01:32;99477.53;;;8.66;66.69
54900;BME280;40801;41.924;25.562;2023-03-21T01:03:58;99480.47;;;8.70;66.46
54900;BME280;40801;41.924;25.562;2023-03-21T01:06:35;99474.63;;;8.63;66.66
54900;BME280;40801;41.924;25.562;2023-03-21T01:09:04;99471.94;;;8.63;66.80
54900;BME280;40801;41.924;25.562;2023-03-21T01:11:30;99467.63;;;8.62;66.69
54900;BME280;40801;41.924;25.562;2023-03-21T01:13:56;99467.44;;;8.58;66.89
54900;BME280;40801;41.924;25.562;2023-03-21T01:16:22;99465.03;;;8.57;66.22
54900;BME280;40801;41.924;25.562;2023-03-21T01:18:48;99449.34;;;8.64;66.49
54900;BME280;40801;41.924;25.562;2023-03-21T01:21:13;99447.94;;;8.66;65.87
54900;BME280;40801;41.924;25.562;2023-03-21T01:23:41;99447.53;;;8.59;67.28
54900;BME280;40801;41.924;25.562;2023-03-21T01:26:08;99448.47;;;8.50;67.73
54900;BME280;40801;41.924;25.562;2023-03-21T01:28:38;99444.97;;;8.49;66.99
54900;BME280;40801;41.924;25.562;2023-03-21T01:31:04;99440.53;;;8.40;67.37
54900;BME280;40801;41.924;25.562;2023-03-21T01:33:31;99441.28;;;8.45;67.31
54900;BME280;40801;41.924;25.562;2023-03-21T01:35:56;99448.25;;;8.46;67.50
54900;BME280;40801;41.924;25.562;2023-03-21T01:38:22;99435.81;;;8.50;67.53
54900;BME280;40801;41.924;25.562;2023-03-21T01:40:48;99435.25;;;8.53;67.91
54900;BME280;40801;41.924;25.562;2023-03-21T01:43:28;99428.19;;;8.57;67.76
54900;BME280;40801;41.924;25.562;2023-03-21T01:48:37;99419.03;;;8.58;67.74
54900;BME280;40801;41.924;25.562;2023-03-21T01:51:04;99421.22;;;8.56;67.74
54900;BME280;40801;41.924;25.562;2023-03-21T01:53:31;99409.47;;;8.52;67.70
54900;BME280;40801;41.924;25.562;2023-03-21T01:56:07;99408.00;;;8.60;68.28
54900;BME280;40801;41.924;25.562;2023-03-21T01:58:34;99406.69;;;8.57;67.24
54900;BME280;40801;41.924;25.562;2023-03-21T02:01:01;99410.19;;;8.58;67.56
54900;BME280;40801;41.924;25.562;2023-03-21T02:03:28;99413.38;;;8.60;67.42
54900;BME280;40801;41.924;25.562;2023-03-21T02:06:10;99410.19;;;8.58;67.84
54900;BME280;40801;41.924;25.562;2023-03-21T02:08:38;99408.72;;;8.47;67.87
54900;BME280;40801;41.924;25.562;2023-03-21T02:11:04;99411.41;;;8.47;67.52
54900;BME280;40801;41.924;25.562;2023-03-21T02:13:30;99404.66;;;8.49;67.85
54900;BME280;40801;41.924;25.562;2023-03-21T02:16:11;99403.72;;;8.59;68.27
54900;BME280;40801;41.924;25.562;2023-03-21T02:27:32;99407.34;;;8.49;68.17
54900;BME280;40801;41.924;25.562;2023-03-21T02:37:44;99403.34;;;8.65;68.67
54900;BME280;40801;41.924;25.562;2023-03-21T02:43:01;99399.00;;;8.69;68.21
54900;BME280;40801;41.924;25.562;2023-03-21T02:45:37;99394.72;;;8.68;68.25
54900;BME280;40801;41.924;25.562;2023-03-21T02:48:08;99394.84;;;8.77;68.20
54900;BME280;40801;41.924;25.562;2023-03-21T02:50:42;99399.25;;;8.87;68.01
54900;BME280;40801;41.924;25.562;2023-03-21T02:53:11;99381.16;;;8.92;67.59
54900;BME280;40801;41.924;25.562;2023-03-21T02:55:39;99378.47;;;8.92;67.67
54900;BME280;40801;41.924;25.562;2023-03-21T02:58:08;99376.50;;;8.98;67.52
54900;BME280;40801;41.924;25.562;2023-03-21T03:00:35;99375.94;;;9.01;67.61
54900;BME280;40801;41.924;25.562;2023-03-21T03:03:01;99377.88;;;8.95;67.91
54900;BME280;40801;41.924;25.562;2023-03-21T03:05:30;99371.28;;;8.88;67.88
54900;BME280;40801;41.924;25.562;2023-03-21T03:19:33;99380.84;;;8.94;67.83
54900;BME280;40801;41.924;25.562;2023-03-21T03:22:05;99381.34;;;8.96;67.74
54900;BME280;40801;41.924;25.562;2023-03-21T03:24:41;99388.13;;;8.93;68.10
54900;BME280;40801;41.924;25.562;2023-03-21T03:27:17;99379.50;;;8.96;67.73
54900;BME280;40801;41.924;25.562;2023-03-21T03:29:45;99380.81;;;8.99;67.75
54900;BME280;40801;41.924;25.562;2023-03-21T03:32:18;99385.38;;;8.98;67.45
54900;BME280;40801;41.924;25.562;2023-03-21T03:34:50;99382.59;;;9.04;67.60
54900;BME280;40801;41.924;25.562;2023-03-21T03:37:26;99385.88;;;9.00;67.76
54900;BME280;40801;41.924;25.562;2023-03-21T03:40:09;99382.31;;;9.05;68.12
54900;BME280;40801;41.924;25.562;2023-03-21T03:42:40;99378.44;;;9.11;67.29
54900;BME280;40801;41.924;25.562;2023-03-21T03:45:08;99386.91;;;9.18;65.98
54900;BME280;40801;41.924;25.562;2023-03-21T03:47:42;99387.81;;;9.14;67.20
54900;BME280;40801;41.924;25.562;2023-03-21T03:50:15;99393.88;;;9.06;66.60
54900;BME280;40801;41.924;25.562;2023-03-21T03:52:49;99395.09;;;8.94;67.99
54900;BME280;40801;41.924;25.562;2023-03-21T03:55:18;99397.97;;;8.84;67.66
54900;BME280;40801;41.924;25.562;2023-03-21T03:57:46;99399.94;;;8.79;68.84
54900;BME280;40801;41.924;25.562;2023-03-21T04:00:13;99401.03;;;8.78;68.31
54900;BME280;40801;41.924;25.562;2023-03-21T04:02:40;99399.13;;;8.78;68.80
54900;BME280;40801;41.924;25.562;2023-03-21T04:05:06;99394.84;;;8.77;69.02
54900;BME280;40801;41.924;25.562;2023-03-21T04:07:31;99397.53;;;8.77;69.39
54900;BME280;40801;41.924;25.562;2023-03-21T04:09:57;99403.13;;;8.81;68.83
54900;BME280;40801;41.924;25.562;2023-03-21T04:12:23;99406.25;;;8.88;68.87
54900;BME280;40801;41.924;25.562;2023-03-21T04:14:48;99405.00;;;8.99;67.55
54900;BME280;40801;41.924;25.562;2023-03-21T04:17:15;99401.13;;;9.05;68.34
54900;BME280;40801;41.924;25.562;2023-03-21T04:19:40;99401.13;;;9.05;68.42
54900;BME280;40801;41.924;25.562;2023-03-21T04:22:06;99368.75;;;8.78;68.11
54900;BME280;40801;41.924;25.562;2023-03-21T04:24:32;99412.84;;;8.95;69.11
54900;BME280;40801;41.924;25.562;2023-03-21T04:26:59;99407.41;;;9.00;68.27
54900;BME280;40801;41.924;25.562;2023-03-21T04:29:25;99412.59;;;9.11;68.26
54900;BME280;40801;41.924;25.562;2023-03-21T04:31:54;99409.72;;;9.07;67.74
54900;BME280;40801;41.924;25.562;2023-03-21T04:34:20;99409.59;;;8.98;68.32
54900;BME280;40801;41.924;25.562;2023-03-21T04:36:50;99401.94;;;9.06;68.32
54900;BME280;40801;41.924;25.562;2023-03-21T04:39:18;99412.22;;;9.17;67.87
54900;BME280;40801;41.924;25.562;2023-03-21T04:41:45;99410.25;;;9.23;67.85
54900;BME280;40801;41.924;25.562;2023-03-21T04:44:12;99414.47;;;9.29;67.81
54900;BME280;40801;41.924;25.562;2023-03-21T04:46:38;99408.50;;;9.32;67.82
54900;BME280;40801;41.924;25.562;2023-03-21T04:49:04;99414.53;;;9.24;68.41
54900;BME280;40801;41.924;25.562;2023-03-21T04:51:31;99412.94;;;9.23;68.46
54900;BME280;40801;41.924;25.562;2023-03-21T04:53:57;99397.88;;;9.22;68.21
54900;BME280;40801;41.924;25.562;2023-03-21T04:56:27;99404.41;;;9.35;67.55
54900;BME280;40801;41.924;25.562;2023-03-21T04:58:58;99405.13;;;9.40;67.33
54900;BME280;40801;41.924;25.562;2023-03-21T05:01:24;99408.81;;;9.44;67.43
54900;BME280;40801;41.924;25.562;2023-03-21T05:03:55;99403.63;;;9.48;67.32
54900;BME280;40801;41.924;25.562;2023-03-21T05:06:20;99402.16;;;9.55;67.25
54900;BME280;40801;41.924;25.562;2023-03-21T05:08:46;99406.94;;;9.58;67.28
54900;BME280;40801;41.924;25.562;2023-03-21T05:11:11;99413.63;;;9.61;67.71
54900;BME280;40801;41.924;25.562;2023-03-21T05:13:36;99418.81;;;9.57;67.73
54900;BME280;40801;41.924;25.562;2023-03-21T05:16:02;99411.84;;;9.56;67.76
54900;BME280;40801;41.924;25.562;2023-03-21T05:18:27;99422.00;;;9.59;67.52
54900;BME280;40801;41.924;25.562;2023-03-21T05:20:55;99417.53;;;9.69;67.77
54900;BME280;40801;41.924;25.562;2023-03-21T05:23:22;99423.94;;;9.86;67.23
54900;BME280;40801;41.924;25.562;2023-03-21T05:25:48;99425.53;;;10.01;66.89
54900;BME280;40801;41.924;25.562;2023-03-21T05:28:13;99429.41;;;10.09;66.61
54900;BME280;40801;41.924;25.562;2023-03-21T05:30:43;99438.63;;;10.21;66.06
54900;BME280;40801;41.924;25.562;2023-03-21T05:33:09;99434.72;;;10.28;65.96
54900;BME280;40801;41.924;25.562;2023-03-21T05:35:35;99444.69;;;10.27;66.43
54900;BME280;40801;41.924;25.562;2023-03-21T05:38:00;99446.31;;;10.42;66.61
54900;BME280;40801;41.924;25.562;2023-03-21T05:40:26;99451.53;;;10.61;66.56
54900;BME280;40801;41.924;25.562;2023-03-21T05:42:51;99446.94;;;10.75;66.28
54900;BME280;40801;41.924;25.562;2023-03-21T05:45:16;99437.91;;;10.79;66.42
54900;BME280;40801;41.924;25.562;2023-03-21T05:47:42;99438.34;;;10.95;66.44
54900;BME280;40801;41.924;25.562;2023-03-21T05:50:08;99446.28;;;11.14;66.54
54900;BME280;40801;41.924;25.562;2023-03-21T05:52:35;99437.63;;;11.48;65.84
54900;BME280;40801;41.924;25.562;2023-03-21T05:55:01;99445.06;;;11.73;65.16
54900;BME280;40801;41.924;25.562;2023-03-21T05:57:26;99447.81;;;11.82;64.46
54900;BME280;40801;41.924;25.562;2023-03-21T05:59:53;99448.72;;;12.08;63.45
54900;BME280;40801;41.924;25.562;2023-03-21T06:02:18;99440.13;;;12.06;63.19
54900;BME280;40801;41.924;25.562;2023-03-21T06:04:44;99446.34;;;12.07;62.81
54900;BME280;40801;41.924;25.562;2023-03-21T06:07:10;99451.91;;;12.10;62.46
54900;BME280;40801;41.924;25.562;2023-03-21T06:09:35;99455.25;;;12.07;62.23
54900;BME280;40801;41.924;25.562;2023-03-21T06:12:01;99465.91;;;12.13;61.91
54900;BME280;40801;41.924;25.562;2023-03-21T06:14:26;99455.47;;;12.20;61.81
54900;BME280;40801;41.924;25.562;2023-03-21T06:16:52;99449.75;;;12.30;61.51
54900;BME280;40801;41.924;25.562;2023-03-21T06:19:19;99450.25;;;12.40;61.75
54900;BME280;40801;41.924;25.562;2023-03-21T06:21:46;99444.56;;;12.59;61.35
54900;BME280;40801;41.924;25.562;2023-03-21T06:24:11;99450.78;;;12.68;60.91
54900;BME280;40801;41.924;25.562;2023-03-21T06:26:37;99436.78;;;12.92;60.60
54900;BME280;40801;41.924;25.562;2023-03-21T06:29:02;99440.00;;;13.20;60.31
54900;BME280;40801;41.924;25.562;2023-03-21T06:31:28;99451.91;;;13.45;59.70
54900;BME280;40801;41.924;25.562;2023-03-21T06:33:53;99436.97;;;13.86;59.33
54900;BME280;40801;41.924;25.562;2023-03-21T06:36:19;99443.75;;;14.39;58.75
54900;BME280;40801;41.924;25.562;2023-03-21T06:38:44;99451.31;;;15.04;57.71
54900;BME280;40801;41.924;25.562;2023-03-21T06:41:11;99447.63;;;15.54;56.50
54900;BME280;40801;41.924;25.562;2023-03-21T06:43:36;99443.06;;;15.67;56.05
54900;BME280;40801;41.924;25.562;2023-03-21T06:46:02;99445.91;;;15.70;55.18
54900;BME280;40801;41.924;25.562;2023-03-21T06:48:28;99443.44;;;15.57;54.86
54900;BME280;40801;41.924;25.562;2023-03-21T06:50:53;99439.59;;;15.25;55.37
54900;BME280;40801;41.924;25.562;2023-03-21T06:53:21;99440.69;;;15.44;54.93
54900;BME280;40801;41.924;25.562;2023-03-21T06:55:54;99441.81;;;15.43;55.27
54900;BME280;40801;41.924;25.562;2023-03-21T06:58:21;99433.78;;;15.35;55.53
54900;BME280;40801;41.924;25.562;2023-03-21T07:00:46;99429.66;;;15.29;55.05
54900;BME280;40801;41.924;25.562;2023-03-21T07:03:12;99442.00;;;15.26;55.12
54900;BME280;40801;41.924;25.562;2023-03-21T07:05:38;99451.34;;;15.16;55.26
54900;BME280;40801;41.924;25.562;2023-03-21T07:08:05;99445.72;;;15.22;55.59
54900;BME280;40801;41.924;25.562;2023-03-21T07:10:32;99442.91;;;15.30;55.74
54900;BME280;40801;41.924;25.562;2023-03-21T07:12:58;99436.84;;;15.78;55.13
54900;BME280;40801;41.924;25.562;2023-03-21T07:15:24;99438.91;;;16.30;54.44
54900;BME280;40801;41.924;25.562;2023-03-21T07:17:50;99442.84;;;16.57;53.70
54900;BME280;40801;41.924;25.562;2023-03-21T07:20:15;99430.38;;;16.81;52.91
54900;BME280;40801;41.924;25.562;2023-03-21T07:22:41;99435.25;;;17.31;52.03
54900;BME280;40801;41.924;25.562;2023-03-21T07:25:07;99430.75;;;17.51;51.23
54900;BME280;40801;41.924;25.562;2023-03-21T07:27:33;99436.28;;;17.39;50.68
54900;BME280;40801;41.924;25.562;2023-03-21T07:29:59;99430.91;;;17.42;50.08
54900;BME280;40801;41.924;25.562;2023-03-21T07:32:24;99428.66;;;17.32;50.22
54900;BME280;40801;41.924;25.562;2023-03-21T07:34:54;99434.13;;;17.32;50.21
54900;BME280;40801;41.924;25.562;2023-03-21T07:37:19;99431.91;;;17.22;50.51
54900;BME280;40801;41.924;25.562;2023-03-21T07:39:45;99436.81;;;16.88;51.13
54900;BME280;40801;41.924;25.562;2023-03-21T07:42:11;99426.59;;;16.85;51.08
54900;BME280;40801;41.924;25.562;2023-03-21T07:44:36;99420.25;;;16.81;51.03
54900;BME280;40801;41.924;25.562;2023-03-21T07:47:03;99426.44;;;16.94;50.80
54900;BME280;40801;41.924;25.562;2023-03-21T07:49:28;99429.00;;;16.75;51.69
54900;BME280;40801;41.924;25.562;2023-03-21T07:51:54;99422.97;;;16.81;51.90
54900;BME280;40801;41.924;25.562;2023-03-21T07:54:19;99422.56;;;17.07;51.58
54900;BME280;40801;41.924;25.562;2023-03-21T07:56:46;99423.91;;;17.29;51.53
54900;BME280;40801;41.924;25.562;2023-03-21T07:59:12;99430.81;;;17.82;50.37
54900;BME280;40801;41.924;25.562;2023-03-21T08:01:37;99429.84;;;18.06;49.92
54900;BME280;40801;41.924;25.562;2023-03-21T08:04:03;99425.03;;;18.50;48.87
54900;BME280;40801;41.924;25.562;2023-03-21T08:06:28;99424.88;;;18.98;48.25
54900;BME280;40801;41.924;25.562;2023-03-21T08:08:57;99425.22;;;19.35;47.37
54900;BME280;40801;41.924;25.562;2023-03-21T08:11:22;99419.09;;;19.84;46.38
54900;BME280;40801;41.924;25.562;2023-03-21T08:13:48;99416.69;;;20.05;45.73
54900;BME280;40801;41.924;25.562;2023-03-21T08:16:15;99415.47;;;20.25;44.92
54900;BME280;40801;41.924;25.562;2023-03-21T08:18:40;99414.63;;;20.48;44.57
54900;BME280;40801;41.924;25.562;2023-03-21T08:21:07;99419.56;;;20.65;43.99
54900;BME280;40801;41.924;25.562;2023-03-21T08:23:32;99416.03;;;20.64;44.23
54900;BME280;40801;41.924;25.562;2023-03-21T08:25:58;99410.41;;;21.14;43.10
54900;BME280;40801;41.924;25.562;2023-03-21T08:28:24;99406.91;;;21.17;42.80
54900;BME280;40801;41.924;25.562;2023-03-21T08:30:49;99401.75;;;21.45;42.28
54900;BME280;40801;41.924;25.562;2023-03-21T08:33:15;99406.97;;;21.57;41.68
54900;BME280;40801;41.924;25.562;2023-03-21T08:35:43;99404.78;;;21.03;42.26
54900;BME280;40801;41.924;25.562;2023-03-21T08:38:09;99402.63;;;20.56;42.97
54900;BME280;40801;41.924;25.562;2023-03-21T08:40:34;99401.09;;;20.58;43.34
54900;BME280;40801;41.924;25.562;2023-03-21T08:43:00;99399.09;;;20.85;42.42
54900;BME280;40801;41.924;25.562;2023-03-21T08:45:25;99394.97;;;21.36;40.54
54900;BME280;40801;41.924;25.562;2023-03-21T08:47:52;99400.78;;;21.27;40.79
54900;BME280;40801;41.924;25.562;2023-03-21T08:50:22;99394.16;;;21.31;40.74
54900;BME280;40801;41.924;25.562;2023-03-21T08:52:49;99383.09;;;21.65;40.01
54900;BME280;40801;41.924;25.562;2023-03-21T08:55:16;99386.94;;;22.01;39.98
54900;BME280;40801;41.924;25.562;2023-03-21T08:57:41;99385.78;;;22.02;39.84
54900;BME280;40801;41.924;25.562;2023-03-21T09:00:10;99386.41;;;21.85;40.04
54900;BME280;40801;41.924;25.562;2023-03-21T09:02:44;99371.53;;;21.89;40.03
54900;BME280;40801;41.924;25.562;2023-03-21T09:05:10;99359.88;;;22.00;39.60
54900;BME280;40801;41.924;25.562;2023-03-21T09:07:37;99357.25;;;22.17;39.69
54900;BME280;40801;41.924;25.562;2023-03-21T09:10:04;99360.53;;;22.37;39.26
54900;BME280;40801;41.924;25.562;2023-03-21T09:12:31;99366.94;;;22.59;39.03
54900;BME280;40801;41.924;25.562;2023-03-21T09:14:56;99365.13;;;22.95;38.34
54900;BME280;40801;41.924;25.562;2023-03-21T09:17:22;99361.69;;;23.27;38.37
54900;BME280;40801;41.924;25.562;2023-03-21T09:19:47;99355.78;;;23.25;38.36
54900;BME280;40801;41.924;25.562;2023-03-21T09:22:13;99363.66;;;23.30;37.31
54900;BME280;40801;41.924;25.562;2023-03-21T09:24:44;99361.34;;;23.57;36.70
54900;BME280;40801;41.924;25.562;2023-03-21T09:27:12;99354.22;;;23.34;37.43
54900;BME280;40801;41.924;25.562;2023-03-21T09:29:39;99353.03;;;23.17;37.09
54900;BME280;40801;41.924;25.562;2023-03-21T09:32:08;99352.91;;;22.82;37.65
54900;BME280;40801;41.924;25.562;2023-03-21T09:34:34;99348.59;;;22.84;37.76
54900;BME280;40801;41.924;25.562;2023-03-21T09:37:01;99353.72;;;22.90;37.85
54900;BME280;40801;41.924;25.562;2023-03-21T09:39:27;99346.28;;;22.94;37.75
54900;BME280;40801;41.924;25.562;2023-03-21T09:42:06;99343.00;;;22.70;37.73
54900;BME280;40801;41.924;25.562;2023-03-21T09:44:50;99341.00;;;22.60;37.98
54900;BME280;40801;41.924;25.562;2023-03-21T09:47:27;99340.50;;;22.37;37.85
54900;BME280;40801;41.924;25.562;2023-03-21T09:52:44;99332.88;;;22.09;37.94
54900;BME280;40801;41.924;25.562;2023-03-21T09:55:23;99332.47;;;22.07;38.36
54900;BME280;40801;41.924;25.562;2023-03-21T09:58:34;99327.56;;;21.82;39.26
54900;BME280;40801;41.924;25.562;2023-03-21T10:01:11;99321.53;;;21.62;39.65
54900;BME280;40801;41.924;25.562;2023-03-21T10:03:47;99330.84;;;21.51;39.51
54900;BME280;40801;41.924;25.562;2023-03-21T10:06:14;99326.31;;;21.25;39.90
54900;BME280;40801;41.924;25.562;2023-03-21T10:08:44;99325.78;;;21.16;40.14
54900;BME280;40801;41.924;25.562;2023-03-21T10:11:17;99343.56;;;21.29;39.70
54900;BME280;40801;41.924;25.562;2023-03-21T10:14:15;99346.63;;;20.87;40.91
54900;BME280;40801;41.924;25.562;2023-03-21T10:16:44;99351.06;;;20.98;40.72
54900;BME280;40801;41.924;25.562;2023-03-21T10:19:13;99351.81;;;20.95;41.27
54900;BME280;40801;41.924;25.562;2023-03-21T10:21:39;99346.72;;;21.31;40.59
54900;BME280;40801;41.924;25.562;2023-03-21T10:24:22;99346.19;;;21.18;40.51
54900;BME280;40801;41.924;25.562;2023-03-21T10:26:49;99337.22;;;21.21;40.85
54900;BME280;40801;41.924;25.562;2023-03-21T10:29:16;99334.78;;;21.13;40.99
54900;BME280;40801;41.924;25.562;2023-03-21T10:31:44;99332.47;;;21.18;40.95
54900;BME280;40801;41.924;25.562;2023-03-21T10:34:35;99334.81;;;21.16;40.92
54900;BME280;40801;41.924;25.562;2023-03-21T10:37:02;99329.03;;;21.25;40.46
54900;BME280;40801;41.924;25.562;2023-03-21T10:39:40;99325.25;;;21.03;40.98
54900;BME280;40801;41.924;25.562;2023-03-21T10:42:18;99313.53;;;21.06;40.70
54900;BME280;40801;41.924;25.562;2023-03-21T10:44:46;99320.53;;;21.00;40.88
54900;BME280;40801;41.924;25.562;2023-03-21T10:47:18;99314.28;;;21.03;40.66
54900;BME280;40801;41.924;25.562;2023-03-21T10:49:46;99309.81;;;20.84;40.99
54900;BME280;40801;41.924;25.562;2023-03-21T10:52:13;99294.91;;;20.82;41.25
54900;BME280;40801;41.924;25.562;2023-03-21T10:54:39;99282.69;;;20.79;41.45
54900;BME280;40801;41.924;25.562;2023-03-21T10:57:08;99285.28;;;21.02;40.67
54900;BME280;40801;41.924;25.562;2023-03-21T10:59:52;99281.19;;;21.22;40.13
54900;BME280;40801;41.924;25.562;2023-03-21T11:02:30;99282.59;;;21.46;39.67
54900;BME280;40801;41.924;25.562;2023-03-21T11:05:06;99272.81;;;21.49;39.59
54900;BME280;40801;41.924;25.562;2023-03-21T11:07:34;99258.03;;;21.68;39.91
54900;BME280;40801;41.924;25.562;2023-03-21T11:10:12;99254.63;;;21.30;39.98
54900;BME280;40801;41.924;25.562;2023-03-21T11:12:39;99256.38;;;21.52;39.81
54900;BME280;40801;41.924;25.562;2023-03-21T11:17:50;99253.38;;;21.72;39.00
54900;BME280;40801;41.924;25.562;2023-03-21T11:20:17;99252.22;;;21.73;39.14
54900;BME280;40801;41.924;25.562;2023-03-21T11:22:44;99242.09;;;21.87;38.54
54900;BME280;40801;41.924;25.562;2023-03-21T11:25:21;99248.03;;;21.96;38.41
54900;BME280;40801;41.924;25.562;2023-03-21T11:27:53;99249.81;;;22.33;38.35
54900;BME280;40801;41.924;25.562;2023-03-21T11:30:24;99250.66;;;22.48;37.64
54900;BME280;40801;41.924;25.562;2023-03-21T11:32:54;99245.53;;;22.43;37.82
54900;BME280;40801;41.924;25.562;2023-03-21T11:35:37;99245.88;;;22.31;37.99
54900;BME280;40801;41.924;25.562;2023-03-21T11:38:04;99236.47;;;22.35;38.05
54900;BME280;40801;41.924;25.562;2023-03-21T11:40:33;99226.97;;;22.15;38.32
54900;BME280;40801;41.924;25.562;2023-03-21T11:43:00;99220.56;;;21.96;38.71
54900;BME280;40801;41.924;25.562;2023-03-21T11:45:33;99221.31;;;21.86;39.10
54900;BME280;40801;41.924;25.562;2023-03-21T11:48:22;99203.94;;;21.68;39.93
54900;BME280;40801;41.924;25.562;2023-03-21T11:50:49;99200.69;;;21.48;40.24
54900;BME280;40801;41.924;25.562;2023-03-21T11:56:27;99199.28;;;21.21;40.97
54900;BME280;40801;41.924;25.562;2023-03-21T12:07:40;99182.94;;;21.31;40.55
54900;BME280;40801;41.924;25.562;2023-03-21T12:10:42;99182.88;;;21.24;40.96
54900;BME280;40801;41.924;25.562;2023-03-21T12:13:26;99180.16;;;21.28;40.74
54900;BME280;40801;41.924;25.562;2023-03-21T12:16:36;99187.91;;;21.15;40.77
54900;BME280;40801;41.924;25.562;2023-03-21T12:22:12;99173.03;;;21.75;39.49
54900;BME280;40801;41.924;25.562;2023-03-21T12:24:52;99168.88;;;22.13;39.37
54900;BME280;40801;41.924;25.562;2023-03-21T12:30:28;99187.53;;;22.98;36.95
54900;BME280;40801;41.924;25.562;2023-03-21T12:33:13;99173.78;;;23.01;37.68
54900;BME280;40801;41.924;25.562;2023-03-21T12:35:53;99165.53;;;23.08;37.13
54900;BME280;40801;41.924;25.562;2023-03-21T12:38:36;99155.72;;;22.86;37.38
54900;BME280;40801;41.924;25.562;2023-03-21T12:41:22;99152.59;;;22.95;37.36
54900;BME280;40801;41.924;25.562;2023-03-21T12:43:52;99147.09;;;22.95;37.68
54900;BME280;40801;41.924;25.562;2023-03-21T12:49:26;99147.53;;;24.23;36.20
54900;BME280;40801;41.924;25.562;2023-03-21T12:52:18;99142.75;;;24.38;35.30
54900;BME280;40801;41.924;25.562;2023-03-21T12:57:21;99134.31;;;25.18;34.27
54900;BME280;40801;41.924;25.562;2023-03-21T12:59:58;99128.78;;;25.56;33.24
54900;BME280;40801;41.924;25.562;2023-03-21T13:02:30;99121.38;;;25.83;32.75
54900;BME280;40801;41.924;25.562;2023-03-21T13:05:03;99117.38;;;26.18;32.30
54900;BME280;40801;41.924;25.562;2023-03-21T13:07:35;99117.38;;;25.88;32.02
54900;BME280;40801;41.924;25.562;2023-03-21T13:10:12;99108.38;;;25.05;32.53
54900;BME280;40801;41.924;25.562;2023-03-21T13:29:27;99094.31;;;23.57;35.47
54900;BME280;40801;41.924;25.562;2023-03-21T13:32:07;99093.53;;;23.56;35.50
54900;BME280;40801;41.924;25.562;2023-03-21T13:34:33;99096.00;;;23.15;35.83
54900;BME280;40801;41.924;25.562;2023-03-21T13:37:00;99096.00;;;22.97;36.29
54900;BME280;40801;41.924;25.562;2023-03-21T13:39:27;99095.19;;;22.79;36.50
54900;BME280;40801;41.924;25.562;2023-03-21T13:41:53;99099.50;;;22.51;37.33
54900;BME280;40801;41.924;25.562;2023-03-21T13:44:42;99083.00;;;22.37;37.67
54900;BME280;40801;41.924;25.562;2023-03-21T13:47:39;99086.50;;;22.20;38.29
54900;BME280;40801;41.924;25.562;2023-03-21T13:50:25;99082.88;;;21.94;38.94
54900;BME280;40801;41.924;25.562;2023-03-21T13:55:28;99088.34;;;21.80;38.84
54900;BME280;40801;41.924;25.562;2023-03-21T13:57:54;99085.97;;;21.79;39.06
54900;BME280;40801;41.924;25.562;2023-03-21T14:00:26;99080.88;;;21.77;39.03
54900;BME280;40801;41.924;25.562;2023-03-21T14:02:57;99076.19;;;21.81;39.15
54900;BME280;40801;41.924;25.562;2023-03-21T14:05:25;99080.50;;;21.79;39.32
54900;BME280;40801;41.924;25.562;2023-03-21T14:07:59;99078.91;;;21.78;39.52
54900;BME280;40801;41.924;25.562;2023-03-21T14:10:34;99069.50;;;21.75;39.51
54900;BME280;40801;41.924;25.562;2023-03-21T14:13:01;99070.22;;;21.61;39.77
54900;BME280;40801;41.924;25.562;2023-03-21T14:15:38;99061.97;;;21.58;39.91
54900;BME280;40801;41.924;25.562;2023-03-21T14:18:05;99066.63;;;21.40;39.89
54900;BME280;40801;41.924;25.562;2023-03-21T14:20:37;99065.44;;;21.44;40.05
54900;BME280;40801;41.924;25.562;2023-03-21T14:23:07;99056.06;;;21.49;39.79
54900;BME280;40801;41.924;25.562;2023-03-21T14:25:38;99065.50;;;21.62;39.59